Flight Track Log - Related Links

Times and Time Zones

All times are in EDT time to prevent confusion due to time zone crossing. See the AAY863 flight status page for this flight to view local times or setup timezone preferences in your user account.

Time Position Orientation Groundspeed Altitude Reporting Facility
EDT Latitude Longitude Course Direction KTS MPH feet Rate Location/Type
Thu 08:13:46 PM 41.8161 -91.6408 149° Southeast 231 266 4,100  Level Chicago Center
Thu 08:14:48 PM 41.7411 -91.6339 176° South 267 307 6,800 2,806 Climbing Chicago Center
Thu 08:15:50 PM 41.6489 -91.6233 175° South 278 320 9,900 2,160 Climbing Chicago Center
Thu 08:16:53 PM 41.5639 -91.6178 177° South 308 354 11,300 1,536 Climbing Chicago Center
Thu 08:17:55 PM 41.4728 -91.5753 161° South 368 423 13,100 1,839 Climbing Chicago Center
Thu 08:18:00 PM 41.2608 -91.3893 149° Southeast  Level FlightAware Approximate
Thu 08:18:57 PM 41.3881 -91.5031 147° Southeast 364 419 15,100  Level Chicago Center
Thu 08:19:00 PM 41.1637 -91.3130 149° Southeast  Level FlightAware Approximate
Thu 08:19:59 PM 41.2956 -91.4267 148° Southeast 390 449 16,600  Level Chicago Center
Thu 08:21:01 PM 41.1908 -91.3397 148° Southeast 419 482 18,400 1,694 Climbing Chicago Center
Thu 08:22:03 PM 41.0900 -91.2525 147° Southeast 429 494 20,100 1,742 Climbing Chicago Center
Thu 08:23:05 PM 40.9700 -91.1378 144° Southeast 442 509 22,000 1,597 Climbing Chicago Center
Thu 08:24:07 PM 40.8778 -91.0261 138° Southeast 449 517 23,400 1,344 Climbing Chicago Center
Thu 08:25:10 PM 40.7872 -90.9078 135° Southeast 458 527 24,800 1,536 Climbing Chicago Center
Thu 08:26:12 PM 40.6769 -90.8192 149° Southeast 463 533 26,600 1,548 Climbing Chicago Center
Thu 08:27:14 PM 40.5669 -90.7358 150° Southeast 463 533 28,000 1,161 Climbing Chicago Center
Thu 08:28:16 PM 40.4386 -90.6369 150° Southeast 455 524 29,000 484 Climbing Chicago Center
Thu 08:29:18 PM 40.3314 -90.5556 150° Southeast 450 518 29,000 350 Level Chicago Center
Thu 08:29:59 PM 40.2678 -90.5067 150° Southeast 450 518 29,600 1,059 Climbing Kansas City Center
Thu 08:31:00 PM 40.1606 -90.4272 150° Southeast 450 518 30,800 689 Climbing Kansas City Center
Thu 08:32:01 PM 40.0525 -90.3467 150° Southeast 450 518 31,000 96 Climbing Kansas City Center
Thu 08:33:05 PM 39.9225 -90.2497 150° Southeast 449 517 31,000  Level Kansas City Center
Thu 08:34:05 PM 39.8133 -90.1700 151° Southeast 450 518 31,000  Level Kansas City Center
Thu 08:35:08 PM 39.7017 -90.0858 150° Southeast 450 518 31,000  Level Kansas City Center
Thu 08:36:09 PM 39.5936 -90.0047 150° Southeast 450 518 31,000 49 Level Kansas City Center
Thu 08:37:10 PM 39.4853 -89.9244 150° Southeast 450 518 31,100 492 Climbing Kansas City Center
Thu 08:38:11 PM 39.3756 -89.8453 151° Southeast 450 518 32,000 726 Climbing Kansas City Center
Thu 08:39:14 PM 39.2692 -89.7658 150° Southeast 446 513 32,600 432 Climbing Kansas City Center
Thu 08:40:16 PM 39.1600 -89.6894 152° Southeast 443 510 32,900 197 Climbing Kansas City Center
Thu 08:41:16 PM 39.0536 -89.6133 151° Southeast 439 505 33,000 50 Climbing Kansas City Center
Thu 08:42:17 PM 38.9267 -89.5214 151° Southeast 439 505 33,000  Level Kansas City Center
Thu 08:43:21 PM 38.8261 -89.4514 152° Southeast 439 505 33,000  Level Kansas City Center
Thu 08:44:22 PM 38.7197 -89.3739 150° Southeast 439 505 33,000  Level Kansas City Center
Thu 08:45:24 PM 38.6042 -89.2911 151° Southeast 439 505 33,000  Level Kansas City Center
Thu 08:46:25 PM 38.4978 -89.2153 151° Southeast 439 505 33,000  Level Kansas City Center
Thu 08:47:26 PM 38.3950 -89.1333 148° Southeast 437 503 33,000  Level Kansas City Center
Thu 08:48:28 PM 38.3008 -89.0281 139° Southeast 451 519 33,000  Level Kansas City Center
Thu 08:49:29 PM 38.1958 -88.9450 148° Southeast 446 513 33,000  Level Kansas City Center
Thu 08:50:30 PM 38.0911 -88.8636 149° Southeast 446 513 33,000  Level Kansas City Center
Thu 08:51:32 PM 37.9658 -88.7667 149° Southeast 445 512 33,000  Level Kansas City Center
Thu 08:52:33 PM 37.8614 -88.6858 149° Southeast 440 506 33,000  Level Kansas City Center
Thu 08:53:37 PM 37.7603 -88.6072 148° Southeast 432 497 33,000  Level Kansas City Center
Thu 08:54:38 PM 37.6550 -88.5256 148° Southeast 434 499 33,000  Level Kansas City Center
Thu 08:55:40 PM 37.5517 -88.4458 149° Southeast 437 503 33,000  Level Kansas City Center
Thu 08:56:41 PM 37.4517 -88.3689 149° Southeast 437 503 33,000  Level Kansas City Center
Thu 08:57:44 PM 37.3272 -88.2722 148° Southeast 437 503 33,000  Level Kansas City Center
Thu 08:58:58 PM 37.2017 -88.1769 149° Southeast 438 504 33,000  Level Memphis Center
Thu 09:00:00 PM 37.0931 -88.0947 149° Southeast 434 499 33,000  Level Memphis Center
Thu 09:01:01 PM 36.9894 -88.0156 149° Southeast 433 498 33,000  Level Memphis Center
Thu 09:02:03 PM 36.8867 -87.9369 149° Southeast 433 498 33,000  Level Memphis Center
Thu 09:03:05 PM 36.7844 -87.8603 149° Southeast 432 497 33,000  Level Memphis Center
Thu 09:04:06 PM 36.6819 -87.7822 149° Southeast 431 496 33,000  Level Memphis Center
Thu 09:05:07 PM 36.5803 -87.7067 149° Southeast 427 491 33,000  Level Memphis Center
Thu 09:06:08 PM 36.4778 -87.6300 149° Southeast 427 491 33,000  Level Memphis Center
Thu 09:07:10 PM 36.3750 -87.5533 149° Southeast 427 491 33,000  Level Memphis Center
Thu 09:08:11 PM 36.2553 -87.4644 149° Southeast 427 491 33,000  Level Memphis Center
Thu 09:09:13 PM 36.1525 -87.3900 150° Southeast 427 491 33,000  Level Memphis Center
Thu 09:10:14 PM 36.0503 -87.3153 149° Southeast 427 491 33,000  Level Memphis Center
Thu 09:11:15 PM 35.9475 -87.2397 149° Southeast 427 491 33,000  Level Memphis Center
Thu 09:12:17 PM 35.8450 -87.1633 149° Southeast 427 491 33,000  Level Memphis Center
Thu 09:13:18 PM 35.7422 -87.0886 149° Southeast 427 491 33,000  Level Memphis Center
Thu 09:14:20 PM 35.6400 -87.0133 149° Southeast 427 491 33,000  Level Memphis Center
Thu 09:15:21 PM 35.5372 -86.9394 150° Southeast 427 491 33,000  Level Memphis Center
Thu 09:16:22 PM 35.4342 -86.8647 149° Southeast 427 491 33,000  Level Memphis Center
Thu 09:17:24 PM 35.3308 -86.7919 150° Southeast 427 491 33,000  Level Memphis Center
Thu 09:18:25 PM 35.2278 -86.7161 149° Southeast 427 491 33,000  Level Memphis Center
Thu 09:19:26 PM 35.1069 -86.6286 149° Southeast 427 491 33,000  Level Memphis Center
Thu 09:20:28 PM 35.0208 -86.5692 151° Southeast 427 491 33,000  Level Memphis Center
Thu 09:21:29 PM 34.8975 -86.4822 150° Southeast 427 491 33,000  Level Memphis Center
Thu 09:22:30 PM 34.7939 -86.4086 150° Southeast 427 491 33,000  Level Memphis Center
Thu 09:23:32 PM 34.6911 -86.3361 150° Southeast 427 491 33,000  Level Memphis Center
Thu 09:24:33 PM 34.5867 -86.2628 150° Southeast 427 491 33,000  Level Memphis Center
Thu 09:25:34 PM 34.4825 -86.1894 150° Southeast 428 493 33,000  Level Memphis Center
Thu 09:26:35 PM 34.3792 -86.1172 150° Southeast 428 493 33,000  Level Memphis Center
Thu 09:27:23 PM 34.2892 -86.0528 149° Southeast 426 490 33,000  Level Atlanta Center
Thu 09:28:23 PM 34.1858 -85.9825 151° Southeast 426 490 33,000  Level Atlanta Center
Thu 09:29:23 PM 34.0786 -85.9097 151° Southeast 431 496 33,000  Level Atlanta Center
Thu 09:30:23 PM 33.9753 -85.8372 150° Southeast 431 496 33,000  Level Atlanta Center
Thu 09:31:23 PM 33.8842 -85.7778 152° Southeast 426 490 33,000  Level Atlanta Center
Thu 09:32:23 PM 33.7686 -85.6956 149° Southeast 433 498 33,000  Level Atlanta Center
Thu 09:33:23 PM 33.6631 -85.6236 150° Southeast 433 498 33,000  Level Atlanta Center
Thu 09:34:23 PM 33.5594 -85.5519 150° Southeast 433 498 33,000  Level Atlanta Center
Thu 09:35:23 PM 33.4519 -85.4803 151° Southeast 433 498 33,000  Level Atlanta Center
Thu 09:36:23 PM 33.3483 -85.4092 150° Southeast 440 506 33,000  Level Atlanta Center
Thu 09:37:23 PM 33.2386 -85.3328 150° Southeast 440 506 33,000  Level Atlanta Center
Thu 09:38:23 PM 33.1347 -85.2642 151° Southeast 440 506 33,000  Level Atlanta Center
Thu 09:39:23 PM 33.0375 -85.1983 150° Southeast 440 506 33,000  Level Atlanta Center
Thu 09:40:23 PM 32.9231 -85.1575 163° South 434 499 33,000  Level Atlanta Center
Thu 09:41:23 PM 32.7958 -85.1211 166° South 429 494 33,000  Level Atlanta Center
Thu 09:42:23 PM 32.6961 -85.0828 162° South 423 487 33,000  Level Atlanta Center
Thu 09:43:23 PM 32.5753 -85.0422 164° South 427 491 33,000  Level Atlanta Center
Thu 09:44:23 PM 32.4631 -85.0039 164° South 435 501 33,000  Level Atlanta Center
Thu 09:46:08 PM 32.2419 -84.9314 164° South 427 491 33,000  Level Jacksonville Center
Thu 09:47:08 PM 32.1236 -84.8894 163° South 427 491 33,000  Level Jacksonville Center
Thu 09:48:08 PM 32.0094 -84.8525 165° South 432 497 33,000  Level Jacksonville Center
Thu 09:49:08 PM 31.8931 -84.8133 164° South 432 497 33,000  Level Jacksonville Center
Thu 09:50:08 PM 31.7767 -84.7744 164° South 432 497 33,000  Level Jacksonville Center
Thu 09:51:08 PM 31.6625 -84.7356 164° South 432 497 33,000  Level Jacksonville Center
Thu 09:52:08 PM 31.5419 -84.6964 165° South 432 497 33,000  Level Jacksonville Center
Thu 09:53:08 PM 31.4300 -84.6456 159° South 432 497 33,000  Level Jacksonville Center
Thu 09:54:08 PM 31.3158 -84.5925 158° South 438 504 33,000  Level Jacksonville Center
Thu 09:55:08 PM 31.2017 -84.5394 158° South 444 511 33,000  Level Jacksonville Center
Thu 09:56:08 PM 31.0875 -84.4839 157° South 449 517 33,000  Level Jacksonville Center
Thu 09:57:08 PM 30.9756 -84.4311 158° South 449 517 33,000  Level Jacksonville Center
Thu 09:58:08 PM 30.8614 -84.3786 158° South 449 517 33,000  Level Jacksonville Center
Thu 09:59:08 PM 30.7469 -84.3258 158° South 449 517 33,000  Level Jacksonville Center
Thu 10:00:08 PM 30.6286 -84.2686 157° South 449 517 33,000  Level Jacksonville Center
Thu 10:01:08 PM 30.5164 -84.2164 158° South 449 517 33,000  Level Jacksonville Center
Thu 10:02:08 PM 30.4064 -84.1667 159° South 449 517 33,000  Level Jacksonville Center
Thu 10:03:08 PM 30.2942 -84.1122 157° South 443 510 33,000 -750 Level Jacksonville Center
Thu 10:04:08 PM 30.1819 -84.0603 158° South 443 510 31,500 -1,000 Descending Jacksonville Center
Thu 10:05:08 PM 30.0675 -84.0061 158° South 443 510 31,000 -250 Descending Jacksonville Center
Thu 10:06:08 PM 29.9553 -83.9544 158° South 443 510 31,000  Level Jacksonville Center
Thu 10:07:08 PM 29.8408 -83.9031 159° South 443 510 31,000  Level Jacksonville Center
Thu 10:08:08 PM 29.7347 -83.8372 152° Southeast 443 510 31,000  Level Jacksonville Center
Thu 10:09:08 PM 29.6267 -83.7694 151° Southeast 438 504 31,000  Level Jacksonville Center
Thu 10:10:08 PM 29.5208 -83.6992 150° Southeast 438 504 31,000 -100 Level Jacksonville Center
Thu 10:11:08 PM 29.4125 -83.6317 152° Southeast 438 504 30,800 -1,050 Descending Jacksonville Center
Thu 10:12:08 PM 29.3169 -83.5714 151° Southeast 438 504 28,900 -1,900 Descending Jacksonville Center
Thu 10:13:08 PM 29.2169 -83.5064 150° Southeast 431 496 27,000 -1,850 Descending Jacksonville Center
Thu 10:14:08 PM 29.1214 -83.4442 150° Southeast 421 484 25,200 -1,750 Descending Jacksonville Center
Thu 10:15:08 PM 29.0275 -83.3842 151° Southeast 398 458 23,500 -1,600 Descending Jacksonville Center
Thu 10:16:08 PM 28.9381 -83.3267 151° Southeast 381 438 22,000 -1,550 Descending Jacksonville Center
Thu 10:17:08 PM 28.8486 -83.2719 152° Southeast 371 427 20,400 -1,600 Descending Jacksonville Center
Thu 10:18:08 PM 28.7589 -83.2122 150° Southeast 371 427 18,800 -1,550 Descending Jacksonville Center
Thu 10:19:08 PM 28.6672 -83.1553 151° Southeast 371 427 17,300 -1,550 Descending Jacksonville Center
Thu 10:20:08 PM 28.5775 -83.0983 151° Southeast 371 427 15,700 -1,613 Descending Jacksonville Center
Thu 10:21:07 PM 28.4833 -83.0333 149° Southeast 362 417 14,100 -1,563 Descending Tampa TRACON
Thu 10:22:07 PM 28.4000 -82.9833 152° Southeast 355 409 12,600 -1,400 Descending Tampa TRACON
Thu 10:23:07 PM 28.3000 -82.9333 156° South 339 390 11,300 -1,190 Descending Tampa TRACON
Thu 10:24:08 PM 28.2333 -82.9000 156° South 293 337 10,200 -1,339 Descending Tampa TRACON
Thu 10:25:08 PM 28.1500 -82.9000 180° South 280 322 8,600 -1,650 Descending Tampa TRACON
Thu 10:26:08 PM 28.0667 -82.9000 180° South 277 319 6,900 -1,039 Descending Tampa TRACON
Thu 10:27:15 PM 28.0058 -82.8994 180° South 272 313 6,400 -703 Descending Miami Center
Thu 10:28:16 PM 27.9525 -82.8914 172° South 205 236 5,400 -1,168 Descending Miami Center
Thu 10:29:08 PM 27.9000 -82.8667 157° South 188 216 4,200 -1,339 Descending Tampa TRACON
Thu 10:30:08 PM 27.8667 -82.8333 139° Southeast 188 216 2,900 -1,000 Descending Tampa TRACON
Thu 10:31:08 PM 27.8167 -82.7833 139° Southeast 186 214 2,200 -500 Descending Tampa TRACON
Thu 10:32:08 PM 27.8000 -82.7333 111° Southeast 164 189 1,900 -350 Descending Tampa TRACON
Thu 10:33:08 PM 27.8333 -82.7000 41° Northeast 157 181 1,500 -600 Descending Tampa TRACON
Thu 10:34:08 PM 27.8667 -82.6833 24° Northeast 146 168 700 -800 Descending Tampa TRACON

Login

Don't have an account? Register now (free) for customized features, flight alerts, and more!